| time (UTC) | temp F | wind direction | speed knots | gust knots | rain 1hr in | rain 24hr in | rain mn in | humidity % | barometer mb |
| 20260505064530 | 48 | 0 | 0.0 | 1.7 | 0.00 | 0.13 | 0.00 | 84 | 1010.3 |
| 20260505063033 | 48 | 183 | 0.9 | 1.7 | 0.00 | 0.13 | 0.00 | 85 | 1010.3 |
| 20260505061527 | 48 | 183 | 0.0 | 3.5 | 0.00 | 0.13 | 0.00 | 85 | 1010.4 |
| 20260505060035 | 48 | 189 | 1.7 | 2.6 | 0.00 | 0.13 | 0.00 | 86 | 1010.3 |
| 20260505054530 | 48 | 189 | 1.7 | 3.5 | 0.00 | 0.13 | 0.13 | 85 | 1010.3 |
| 20260505053040 | 48 | 189 | 0.9 | 2.6 | 0.00 | 0.13 | 0.13 | 85 | 1010.1 |
| 20260505051530 | 48 | 189 | 0.9 | 1.7 | 0.00 | 0.13 | 0.13 | 86 | 1010.2 |
| 20260505041539 | 48 | 210 | 3.5 | 7.0 | 0.05 | 0.13 | 0.13 | 84 | 1010.3 |
| 20260505040029 | 48 | 244 | 3.5 | 7.8 | 0.08 | 0.13 | 0.13 | 85 | 1010.2 |
| 20260505034532 | 49 | 235 | 6.1 | 9.6 | 0.09 | 0.11 | 0.11 | 85 | 1010.3 |
| 20260505033028 | 49 | 225 | 5.2 | 8.7 | 0.10 | 0.10 | 0.10 | 84 | 1010.3 |
| 20260505031528 | 49 | 248 | 7.8 | 10.4 | 0.07 | 0.07 | 0.07 | 82 | 1010.0 |
| 20260505030028 | 49 | 234 | 7.0 | 9.6 | 0.05 | 0.05 | 0.05 | 79 | 1010.0 |
| 20260505024528 | 50 | 237 | 2.6 | 3.5 | 0.02 | 0.02 | 0.02 | 76 | 1009.7 |
| 20260505023029 | 52 | 293 | 2.6 | 6.1 | 0.00 | 0.00 | 0.00 | 69 | 1009.6 |
| 20260505021529 | 53 | 311 | 1.7 | 3.5 | 0.00 | 0.00 | 0.00 | 63 | 1009.2 |
| 20260505020028 | 53 | 297 | 1.7 | 3.5 | 0.00 | 0.00 | 0.00 | 63 | 1009.4 |
| 20260505014528 | 53 | 321 | 0.9 | 4.3 | 0.00 | 0.00 | 0.00 | 62 | 1009.2 |
| 20260505013030 | 54 | 299 | 2.6 | 10.4 | 0.00 | 0.00 | 0.00 | 60 | 1009.1 |
| 20260505011547 | 55 | 313 | 4.3 | 13.0 | 0.00 | 0.00 | 0.00 | 56 | 1008.9 |
| 20260505010026 | 57 | 352 | 3.5 | 5.2 | 0.00 | 0.00 | 0.00 | 56 | 1008.8 |
| 20260505004528 | 57 | 333 | 2.6 | 7.8 | 0.00 | 0.00 | 0.00 | 57 | 1008.8 |
| 20260505003028 | 58 | 316 | 3.5 | 5.2 | 0.00 | 0.00 | 0.00 | 56 | 1008.4 |
| 20260505001528 | 58 | 14 | 2.6 | 6.1 | 0.00 | 0.00 | 0.00 | 56 | 1008.1 |
| 20260505000037 | 57 | 300 | 2.6 | 5.2 | 0.00 | 0.00 | 0.00 | 58 | 1008.2 |
| 20260504234530 | 57 | 337 | 3.5 | 8.7 | 0.00 | 0.00 | 0.00 | 54 | 1008.1 |
| 20260504233028 | 59 | 325 | 5.2 | 10.4 | 0.00 | 0.00 | 0.00 | 47 | 1008.1 |
| 20260504231528 | 61 | 348 | 4.3 | 12.2 | 0.00 | 0.00 | 0.00 | 46 | 1008.1 |
| 20260504230030 | 61 | 277 | 9.6 | 13.0 | 0.00 | 0.00 | 0.00 | 42 | 1008.1 |
| 20260504224533 | 61 | 263 | 7.8 | 10.4 | 0.00 | 0.00 | 0.00 | 41 | 1008.1 |
| 20260504223030 | 62 | 328 | 2.6 | 4.3 | 0.00 | 0.00 | 0.00 | 38 | 1007.6 |
| 20260504221530 | 62 | 10 | 3.5 | 10.4 | 0.00 | 0.00 | 0.00 | 40 | 1007.2 |
| 20260504220028 | 63 | 21 | 7.0 | 14.8 | 0.00 | 0.00 | 0.00 | 40 | 1006.9 |
| 20260504214530 | 63 | 352 | 10.4 | 20.0 | 0.00 | 0.00 | 0.00 | 40 | 1007.0 |
| 20260504213033 | 65 | 346 | 10.4 | 18.2 | 0.00 | 0.00 | 0.00 | 41 | 1007.5 |
| 20260504211528 | 62 | 352 | 8.7 | 14.8 | 0.00 | 0.00 | 0.00 | 45 | 1007.4 |
| 20260504210028 | 60 | 327 | 6.1 | 15.6 | 0.00 | 0.00 | 0.00 | 47 | 1007.5 |
| 20260504204528 | 64 | 334 | 8.7 | 14.8 | 0.00 | 0.00 | 0.00 | 35 | 1007.5 |
| 20260504203028 | 68 | 22 | 6.1 | 11.3 | 0.00 | 0.00 | 0.00 | 25 | 1007.3 |
| 20260504201527 | 68 | 203 | 1.7 | 9.6 | 0.00 | 0.00 | 0.00 | 18 | 1006.7 |
| 20260504200030 | 72 | 320 | 7.0 | 13.9 | 0.00 | 0.00 | 0.00 | 20 | 1006.3 |
| 20260504194531 | 75 | 9 | 8.7 | 14.8 | 0.00 | 0.00 | 0.00 | 19 | 1006.5 |
| 20260504193028 | 73 | 309 | 9.6 | 15.6 | 0.00 | 0.00 | 0.00 | 19 | 1006.3 |
| 20260504191530 | 72 | 300 | 7.8 | 15.6 | 0.00 | 0.00 | 0.00 | 18 | 1006.1 |
| 20260504190030 | 73 | 330 | 7.0 | 13.9 | 0.00 | 0.00 | 0.00 | 16 | 1006.2 |
| 20260504184528 | 74 | 274 | 7.0 | 13.0 | 0.00 | 0.00 | 0.00 | 18 | 1006.4 |
| 20260504183029 | 73 | 304 | 10.4 | 15.6 | 0.00 | 0.00 | 0.00 | 18 | 1006.5 |
| 20260504181530 | 72 | 287 | 11.3 | 16.5 | 0.00 | 0.00 | 0.00 | 19 | 1006.7 |
| 20260504180029 | 72 | 272 | 13.0 | 17.4 | 0.00 | 0.00 | 0.00 | 20 | 1007.0 |
| 20260504174527 | 72 | 279 | 12.2 | 20.0 | 0.00 | 0.00 | 0.00 | 23 | 1007.1 |
| 20260504173028 | 70 | 275 | 14.8 | 20.0 | 0.00 | 0.00 | 0.00 | 23 | 1007.4 |
| 20260504171543 | 69 | 265 | 11.3 | 17.4 | 0.00 | 0.00 | 0.00 | 25 | 1007.8 |
| 20260504081528 | 49 | 227 | 0.9 | 1.7 | 0.00 | 0.00 | 0.00 | 42 | 1009.2 |